sensor_id;sensor_type;location;lat;lon;timestamp;temperature;humidity
53880;DHT22;39791;53.184;5.486;2023-02-28T00:00:45;5.90;99.90
53880;DHT22;39791;53.184;5.486;2023-02-28T00:03:11;5.30;99.90
53880;DHT22;39791;53.184;5.486;2023-02-28T00:05:36;4.30;99.90
53880;DHT22;39791;53.184;5.486;2023-02-28T00:08:02;4.40;99.90
53880;DHT22;39791;53.184;5.486;2023-02-28T00:10:30;5.70;99.90
53880;DHT22;39791;53.184;5.486;2023-02-28T00:13:01;4.40;99.90
53880;DHT22;39791;53.184;5.486;2023-02-28T00:15:27;5.30;99.90
53880;DHT22;39791;53.184;5.486;2023-02-28T00:17:52;5.50;99.90
53880;DHT22;39791;53.184;5.486;2023-02-28T00:20:18;5.90;99.90
53880;DHT22;39791;53.184;5.486;2023-02-28T00:22:46;5.90;99.90
53880;DHT22;39791;53.184;5.486;2023-02-28T00:25:14;5.90;99.90
53880;DHT22;39791;53.184;5.486;2023-02-28T00:27:42;5.70;99.90
53880;DHT22;39791;53.184;5.486;2023-02-28T00:30:11;5.90;99.90
53880;DHT22;39791;53.184;5.486;2023-02-28T00:32:37;5.20;1.00
53880;DHT22;39791;53.184;5.486;2023-02-28T00:35:03;6.10;1.00
53880;DHT22;39791;53.184;5.486;2023-02-28T00:37:29;5.90;1.00
53880;DHT22;39791;53.184;5.486;2023-02-28T00:39:54;6.20;1.00
53880;DHT22;39791;53.184;5.486;2023-02-28T00:42:20;6.10;1.00
53880;DHT22;39791;53.184;5.486;2023-02-28T00:44:45;4.80;4.60
53880;DHT22;39791;53.184;5.486;2023-02-28T00:47:11;4.50;13.50
53880;DHT22;39791;53.184;5.486;2023-02-28T00:49:37;4.40;28.60
53880;DHT22;39791;53.184;5.486;2023-02-28T00:52:02;6.30;56.50
53880;DHT22;39791;53.184;5.486;2023-02-28T00:54:28;6.20;72.30
53880;DHT22;39791;53.184;5.486;2023-02-28T00:56:54;6.30;97.30
53880;DHT22;39791;53.184;5.486;2023-02-28T00:59:19;6.20;99.90
53880;DHT22;39791;53.184;5.486;2023-02-28T01:01:46;4.70;99.90
53880;DHT22;39791;53.184;5.486;2023-02-28T01:04:12;5.50;99.90
53880;DHT22;39791;53.184;5.486;2023-02-28T01:06:38;5.30;99.90
53880;DHT22;39791;53.184;5.486;2023-02-28T01:09:05;5.20;99.90
53880;DHT22;39791;53.184;5.486;2023-02-28T01:11:31;4.40;99.90
53880;DHT22;39791;53.184;5.486;2023-02-28T01:13:58;6.40;99.90
53880;DHT22;39791;53.184;5.486;2023-02-28T01:16:23;4.90;99.90
53880;DHT22;39791;53.184;5.486;2023-02-28T01:18:49;4.50;99.90
53880;DHT22;39791;53.184;5.486;2023-02-28T01:21:17;5.10;99.90
53880;DHT22;39791;53.184;5.486;2023-02-28T01:23:43;5.90;99.90
53880;DHT22;39791;53.184;5.486;2023-02-28T01:26:13;5.70;1.00
53880;DHT22;39791;53.184;5.486;2023-02-28T01:28:39;6.40;1.00
53880;DHT22;39791;53.184;5.486;2023-02-28T01:31:04;5.00;1.00
53880;DHT22;39791;53.184;5.486;2023-02-28T01:33:31;6.50;1.00
53880;DHT22;39791;53.184;5.486;2023-02-28T01:36:02;5.70;1.00
53880;DHT22;39791;53.184;5.486;2023-02-28T01:38:27;4.80;1.00
53880;DHT22;39791;53.184;5.486;2023-02-28T01:40:53;6.20;1.00
53880;DHT22;39791;53.184;5.486;2023-02-28T01:43:53;6.30;1.00
53880;DHT22;39791;53.184;5.486;2023-02-28T01:46:18;6.30;25.50
53880;DHT22;39791;53.184;5.486;2023-02-28T01:48:54;4.60;77.80
53880;DHT22;39791;53.184;5.486;2023-02-28T01:51:51;6.40;99.90
53880;DHT22;39791;53.184;5.486;2023-02-28T01:54:25;6.10;99.90
53880;DHT22;39791;53.184;5.486;2023-02-28T01:56:59;4.80;99.90
53880;DHT22;39791;53.184;5.486;2023-02-28T01:59:43;4.90;99.90
53880;DHT22;39791;53.184;5.486;2023-02-28T02:02:19;6.10;99.90
53880;DHT22;39791;53.184;5.486;2023-02-28T02:07:20;5.80;99.90
53880;DHT22;39791;53.184;5.486;2023-02-28T02:09:46;5.70;1.00
53880;DHT22;39791;53.184;5.486;2023-02-28T02:12:27;7.00;1.00
53880;DHT22;39791;53.184;5.486;2023-02-28T02:15:03;5.80;72.60
53880;DHT22;39791;53.184;5.486;2023-02-28T02:17:34;5.60;99.90
53880;DHT22;39791;53.184;5.486;2023-02-28T02:20:38;5.10;99.90
53880;DHT22;39791;53.184;5.486;2023-02-28T02:23:40;5.10;99.90
53880;DHT22;39791;53.184;5.486;2023-02-28T02:26:39;7.10;1.00
53880;DHT22;39791;53.184;5.486;2023-02-28T02:32:28;6.20;99.90
53880;DHT22;39791;53.184;5.486;2023-02-28T02:35:30;5.00;99.90
53880;DHT22;39791;53.184;5.486;2023-02-28T02:40:42;5.10;1.00
53880;DHT22;39791;53.184;5.486;2023-02-28T02:43:41;5.10;90.30
53880;DHT22;39791;53.184;5.486;2023-02-28T02:46:24;5.90;99.90
53880;DHT22;39791;53.184;5.486;2023-02-28T02:48:54;6.30;99.90
53880;DHT22;39791;53.184;5.486;2023-02-28T02:51:23;7.00;1.00
53880;DHT22;39791;53.184;5.486;2023-02-28T02:56:37;5.60;99.90
53880;DHT22;39791;53.184;5.486;2023-02-28T02:59:07;7.10;99.90
53880;DHT22;39791;53.184;5.486;2023-02-28T03:01:35;5.50;1.00
53880;DHT22;39791;53.184;5.486;2023-02-28T03:04:13;4.90;1.00
53880;DHT22;39791;53.184;5.486;2023-02-28T03:06:41;5.00;99.90
53880;DHT22;39791;53.184;5.486;2023-02-28T03:09:06;5.40;99.90
53880;DHT22;39791;53.184;5.486;2023-02-28T03:11:34;4.90;99.90
53880;DHT22;39791;53.184;5.486;2023-02-28T03:24:40;5.10;1.00
53880;DHT22;39791;53.184;5.486;2023-02-28T03:27:09;7.30;1.00
53880;DHT22;39791;53.184;5.486;2023-02-28T03:29:42;6.10;6.40
53880;DHT22;39791;53.184;5.486;2023-02-28T03:32:16;5.10;57.80
53880;DHT22;39791;53.184;5.486;2023-02-28T03:34:56;4.90;99.90
53880;DHT22;39791;53.184;5.486;2023-02-28T03:37:24;7.20;99.90
53880;DHT22;39791;53.184;5.486;2023-02-28T03:39:58;5.00;99.90
53880;DHT22;39791;53.184;5.486;2023-02-28T03:42:27;5.70;99.90
53880;DHT22;39791;53.184;5.486;2023-02-28T03:45:20;5.70;99.90
53880;DHT22;39791;53.184;5.486;2023-02-28T03:48:13;4.90;99.90
53880;DHT22;39791;53.184;5.486;2023-02-28T03:50:45;5.40;99.90
53880;DHT22;39791;53.184;5.486;2023-02-28T03:53:21;6.50;99.90
53880;DHT22;39791;53.184;5.486;2023-02-28T03:55:53;5.10;99.90
53880;DHT22;39791;53.184;5.486;2023-02-28T03:58:42;5.10;99.90
53880;DHT22;39791;53.184;5.486;2023-02-28T04:01:27;7.40;99.90
53880;DHT22;39791;53.184;5.486;2023-02-28T04:03:55;6.70;99.90
53880;DHT22;39791;53.184;5.486;2023-02-28T04:06:22;6.30;99.90
53880;DHT22;39791;53.184;5.486;2023-02-28T04:08:49;7.50;99.90
53880;DHT22;39791;53.184;5.486;2023-02-28T04:11:17;5.30;99.90
53880;DHT22;39791;53.184;5.486;2023-02-28T04:13:44;7.50;99.90
53880;DHT22;39791;53.184;5.486;2023-02-28T04:16:10;6.40;99.90
53880;DHT22;39791;53.184;5.486;2023-02-28T04:18:38;5.40;99.90
53880;DHT22;39791;53.184;5.486;2023-02-28T04:21:05;5.70;99.90
53880;DHT22;39791;53.184;5.486;2023-02-28T04:23:30;7.20;99.90
53880;DHT22;39791;53.184;5.486;2023-02-28T04:25:56;6.70;99.90
53880;DHT22;39791;53.184;5.486;2023-02-28T04:28:22;7.60;99.90
53880;DHT22;39791;53.184;5.486;2023-02-28T04:30:53;5.30;99.90
53880;DHT22;39791;53.184;5.486;2023-02-28T04:33:19;6.30;99.90
53880;DHT22;39791;53.184;5.486;2023-02-28T04:35:44;7.50;99.90
53880;DHT22;39791;53.184;5.486;2023-02-28T04:38:10;5.40;99.90
53880;DHT22;39791;53.184;5.486;2023-02-28T04:40:35;6.60;99.90
53880;DHT22;39791;53.184;5.486;2023-02-28T04:43:01;7.30;99.90
53880;DHT22;39791;53.184;5.486;2023-02-28T04:45:26;5.70;99.90
53880;DHT22;39791;53.184;5.486;2023-02-28T04:47:55;7.60;99.90
53880;DHT22;39791;53.184;5.486;2023-02-28T04:50:20;6.10;99.90
53880;DHT22;39791;53.184;5.486;2023-02-28T04:52:46;7.40;99.90
53880;DHT22;39791;53.184;5.486;2023-02-28T04:55:12;8.10;99.90
53880;DHT22;39791;53.184;5.486;2023-02-28T04:57:37;6.30;99.90
53880;DHT22;39791;53.184;5.486;2023-02-28T05:00:03;8.10;99.90
53880;DHT22;39791;53.184;5.486;2023-02-28T05:02:35;5.80;99.90
53880;DHT22;39791;53.184;5.486;2023-02-28T05:05:00;5.90;99.90
53880;DHT22;39791;53.184;5.486;2023-02-28T05:07:26;7.50;99.90
53880;DHT22;39791;53.184;5.486;2023-02-28T05:09:51;5.70;99.90
53880;DHT22;39791;53.184;5.486;2023-02-28T05:12:18;5.70;99.90
53880;DHT22;39791;53.184;5.486;2023-02-28T05:14:43;8.20;99.90
53880;DHT22;39791;53.184;5.486;2023-02-28T05:17:09;8.10;99.90
53880;DHT22;39791;53.184;5.486;2023-02-28T05:19:35;6.00;99.90
53880;DHT22;39791;53.184;5.486;2023-02-28T05:22:01;7.90;99.90
53880;DHT22;39791;53.184;5.486;2023-02-28T05:24:27;7.10;99.90
53880;DHT22;39791;53.184;5.486;2023-02-28T05:26:54;5.70;99.90
53880;DHT22;39791;53.184;5.486;2023-02-28T05:29:20;5.70;99.90
53880;DHT22;39791;53.184;5.486;2023-02-28T05:31:46;5.80;99.90
53880;DHT22;39791;53.184;5.486;2023-02-28T05:34:11;8.20;99.90
53880;DHT22;39791;53.184;5.486;2023-02-28T05:36:38;6.90;99.90
53880;DHT22;39791;53.184;5.486;2023-02-28T05:39:06;8.20;99.90
53880;DHT22;39791;53.184;5.486;2023-02-28T05:41:32;6.40;99.90
53880;DHT22;39791;53.184;5.486;2023-02-28T05:43:59;6.10;99.90
53880;DHT22;39791;53.184;5.486;2023-02-28T05:46:25;5.90;99.90
53880;DHT22;39791;53.184;5.486;2023-02-28T05:48:51;6.50;99.90
53880;DHT22;39791;53.184;5.486;2023-02-28T05:51:17;8.40;99.90
53880;DHT22;39791;53.184;5.486;2023-02-28T05:53:43;8.30;99.90
53880;DHT22;39791;53.184;5.486;2023-02-28T05:56:09;7.80;99.90
53880;DHT22;39791;53.184;5.486;2023-02-28T05:58:35;5.90;99.90
53880;DHT22;39791;53.184;5.486;2023-02-28T06:01:18;6.60;99.90
53880;DHT22;39791;53.184;5.486;2023-02-28T06:03:44;6.40;99.90
53880;DHT22;39791;53.184;5.486;2023-02-28T06:06:10;6.10;99.90
53880;DHT22;39791;53.184;5.486;2023-02-28T06:08:35;7.60;99.90
53880;DHT22;39791;53.184;5.486;2023-02-28T06:11:03;6.60;99.90
53880;DHT22;39791;53.184;5.486;2023-02-28T06:13:29;8.40;99.90
53880;DHT22;39791;53.184;5.486;2023-02-28T06:15:55;6.40;99.90
53880;DHT22;39791;53.184;5.486;2023-02-28T06:18:20;6.20;99.90
53880;DHT22;39791;53.184;5.486;2023-02-28T06:20:55;6.90;99.90
53880;DHT22;39791;53.184;5.486;2023-02-28T06:23:21;7.60;99.90
53880;DHT22;39791;53.184;5.486;2023-02-28T06:25:47;5.80;99.90
53880;DHT22;39791;53.184;5.486;2023-02-28T06:28:13;6.80;99.90
53880;DHT22;39791;53.184;5.486;2023-02-28T06:30:38;6.00;99.90
53880;DHT22;39791;53.184;5.486;2023-02-28T06:33:04;5.90;99.90
53880;DHT22;39791;53.184;5.486;2023-02-28T06:35:30;5.80;99.90
53880;DHT22;39791;53.184;5.486;2023-02-28T06:37:56;8.20;99.90
53880;DHT22;39791;53.184;5.486;2023-02-28T06:40:22;5.90;99.90
53880;DHT22;39791;53.184;5.486;2023-02-28T06:42:47;8.10;99.90
53880;DHT22;39791;53.184;5.486;2023-02-28T06:45:13;6.00;99.90
53880;DHT22;39791;53.184;5.486;2023-02-28T06:47:40;8.00;99.90
53880;DHT22;39791;53.184;5.486;2023-02-28T06:50:07;8.50;99.90
53880;DHT22;39791;53.184;5.486;2023-02-28T06:52:32;7.20;99.90
53880;DHT22;39791;53.184;5.486;2023-02-28T06:55:01;6.00;99.90
53880;DHT22;39791;53.184;5.486;2023-02-28T06:57:31;5.90;99.90
53880;DHT22;39791;53.184;5.486;2023-02-28T07:00:03;5.90;99.90
53880;DHT22;39791;53.184;5.486;2023-02-28T07:02:29;8.40;99.90
53880;DHT22;39791;53.184;5.486;2023-02-28T07:04:56;6.30;99.90
53880;DHT22;39791;53.184;5.486;2023-02-28T07:07:22;7.70;99.90
53880;DHT22;39791;53.184;5.486;2023-02-28T07:09:48;8.60;99.90
53880;DHT22;39791;53.184;5.486;2023-02-28T07:12:13;8.70;99.90
53880;DHT22;39791;53.184;5.486;2023-02-28T07:14:39;6.60;99.90
53880;DHT22;39791;53.184;5.486;2023-02-28T07:17:07;8.10;99.90
53880;DHT22;39791;53.184;5.486;2023-02-28T07:19:33;8.70;99.90
53880;DHT22;39791;53.184;5.486;2023-02-28T07:21:58;6.10;99.90
53880;DHT22;39791;53.184;5.486;2023-02-28T07:24:24;6.10;99.90
53880;DHT22;39791;53.184;5.486;2023-02-28T07:26:53;6.30;99.90
53880;DHT22;39791;53.184;5.486;2023-02-28T07:29:19;8.20;99.90
53880;DHT22;39791;53.184;5.486;2023-02-28T07:31:44;7.30;99.90
53880;DHT22;39791;53.184;5.486;2023-02-28T07:34:12;7.50;99.90
53880;DHT22;39791;53.184;5.486;2023-02-28T07:36:38;7.10;99.90
53880;DHT22;39791;53.184;5.486;2023-02-28T07:39:03;5.30;99.90
53880;DHT22;39791;53.184;5.486;2023-02-28T07:41:30;4.50;99.90
53880;DHT22;39791;53.184;5.486;2023-02-28T07:43:59;6.60;99.90
53880;DHT22;39791;53.184;5.486;2023-02-28T07:46:25;6.00;99.90
53880;DHT22;39791;53.184;5.486;2023-02-28T07:48:51;4.10;99.90
53880;DHT22;39791;53.184;5.486;2023-02-28T07:51:18;6.60;99.90
53880;DHT22;39791;53.184;5.486;2023-02-28T07:53:44;6.30;99.90
53880;DHT22;39791;53.184;5.486;2023-02-28T07:56:12;4.10;99.90
53880;DHT22;39791;53.184;5.486;2023-02-28T07:58:38;5.70;99.90
53880;DHT22;39791;53.184;5.486;2023-02-28T08:01:08;4.50;99.90
53880;DHT22;39791;53.184;5.486;2023-02-28T08:03:34;6.50;99.90
53880;DHT22;39791;53.184;5.486;2023-02-28T08:06:01;3.90;99.90
53880;DHT22;39791;53.184;5.486;2023-02-28T08:08:27;5.20;99.90
53880;DHT22;39791;53.184;5.486;2023-02-28T08:11:02;6.20;99.90
53880;DHT22;39791;53.184;5.486;2023-02-28T08:13:29;6.30;99.90
53880;DHT22;39791;53.184;5.486;2023-02-28T08:15:55;5.30;99.90
53880;DHT22;39791;53.184;5.486;2023-02-28T08:18:22;3.90;99.90
53880;DHT22;39791;53.184;5.486;2023-02-28T08:20:48;4.00;99.90
53880;DHT22;39791;53.184;5.486;2023-02-28T08:23:14;4.50;99.90
53880;DHT22;39791;53.184;5.486;2023-02-28T08:25:40;6.60;99.90
53880;DHT22;39791;53.184;5.486;2023-02-28T08:28:05;5.00;99.90
53880;DHT22;39791;53.184;5.486;2023-02-28T08:30:31;4.10;99.90
53880;DHT22;39791;53.184;5.486;2023-02-28T08:32:57;4.40;99.90
53880;DHT22;39791;53.184;5.486;2023-02-28T08:35:22;5.10;99.90
53880;DHT22;39791;53.184;5.486;2023-02-28T08:37:49;4.50;99.90
53880;DHT22;39791;53.184;5.486;2023-02-28T08:40:15;5.30;99.90
53880;DHT22;39791;53.184;5.486;2023-02-28T08:42:44;4.40;99.90
53880;DHT22;39791;53.184;5.486;2023-02-28T08:45:11;5.40;99.90
53880;DHT22;39791;53.184;5.486;2023-02-28T08:47:37;6.50;99.90
53880;DHT22;39791;53.184;5.486;2023-02-28T08:50:03;4.40;99.90
53880;DHT22;39791;53.184;5.486;2023-02-28T08:52:29;5.70;99.90
53880;DHT22;39791;53.184;5.486;2023-02-28T08:54:54;5.30;99.90
53880;DHT22;39791;53.184;5.486;2023-02-28T08:57:20;4.30;99.90
53880;DHT22;39791;53.184;5.486;2023-02-28T08:59:46;6.50;99.90
53880;DHT22;39791;53.184;5.486;2023-02-28T09:02:15;6.50;99.90
53880;DHT22;39791;53.184;5.486;2023-02-28T09:04:41;4.10;99.90
53880;DHT22;39791;53.184;5.486;2023-02-28T09:07:07;4.80;99.90
53880;DHT22;39791;53.184;5.486;2023-02-28T09:09:32;4.70;99.90
53880;DHT22;39791;53.184;5.486;2023-02-28T09:11:58;4.10;99.90
53880;DHT22;39791;53.184;5.486;2023-02-28T09:14:24;4.00;99.90
53880;DHT22;39791;53.184;5.486;2023-02-28T09:16:49;5.20;99.90
53880;DHT22;39791;53.184;5.486;2023-02-28T09:19:15;4.60;99.90
53880;DHT22;39791;53.184;5.486;2023-02-28T09:21:41;3.90;99.90
53880;DHT22;39791;53.184;5.486;2023-02-28T09:24:07;4.70;99.90
53880;DHT22;39791;53.184;5.486;2023-02-28T09:26:32;5.70;99.90
53880;DHT22;39791;53.184;5.486;2023-02-28T09:28:59;5.40;99.90
53880;DHT22;39791;53.184;5.486;2023-02-28T09:31:27;4.10;99.90
53880;DHT22;39791;53.184;5.486;2023-02-28T09:33:55;5.00;99.90
53880;DHT22;39791;53.184;5.486;2023-02-28T09:36:23;4.90;99.90
53880;DHT22;39791;53.184;5.486;2023-02-28T09:38:49;6.70;99.90
53880;DHT22;39791;53.184;5.486;2023-02-28T09:41:21;4.20;99.90
53880;DHT22;39791;53.184;5.486;2023-02-28T09:43:59;4.50;99.90
53880;DHT22;39791;53.184;5.486;2023-02-28T09:46:35;5.90;99.90
53880;DHT22;39791;53.184;5.486;2023-02-28T09:49:10;4.50;99.90
53880;DHT22;39791;53.184;5.486;2023-02-28T09:51:47;6.20;99.90
53880;DHT22;39791;53.184;5.486;2023-02-28T09:54:19;6.90;99.90
53880;DHT22;39791;53.184;5.486;2023-02-28T10:04:59;6.80;99.90
53880;DHT22;39791;53.184;5.486;2023-02-28T10:10:44;7.10;99.90
53880;DHT22;39791;53.184;5.486;2023-02-28T10:15:55;5.30;99.90
53880;DHT22;39791;53.184;5.486;2023-02-28T10:18:30;7.50;99.90
53880;DHT22;39791;53.184;5.486;2023-02-28T10:20:56;7.50;99.90
53880;DHT22;39791;53.184;5.486;2023-02-28T10:23:32;7.40;99.90
53880;DHT22;39791;53.184;5.486;2023-02-28T10:26:09;5.80;99.90
53880;DHT22;39791;53.184;5.486;2023-02-28T10:28:36;6.00;99.90
53880;DHT22;39791;53.184;5.486;2023-02-28T10:31:02;7.30;99.90
53880;DHT22;39791;53.184;5.486;2023-02-28T10:33:31;6.40;99.90
53880;DHT22;39791;53.184;5.486;2023-02-28T10:35:57;6.30;99.90
53880;DHT22;39791;53.184;5.486;2023-02-28T10:38:26;5.50;99.90
53880;DHT22;39791;53.184;5.486;2023-02-28T10:41:10;5.60;99.90
53880;DHT22;39791;53.184;5.486;2023-02-28T10:43:38;6.10;99.90
53880;DHT22;39791;53.184;5.486;2023-02-28T10:48:41;7.60;99.90
53880;DHT22;39791;53.184;5.486;2023-02-28T10:51:12;7.50;99.90
53880;DHT22;39791;53.184;5.486;2023-02-28T10:53:53;6.40;99.90
53880;DHT22;39791;53.184;5.486;2023-02-28T10:56:21;7.50;99.90
53880;DHT22;39791;53.184;5.486;2023-02-28T10:58:58;6.50;99.90
53880;DHT22;39791;53.184;5.486;2023-02-28T11:03:53;5.90;99.90
53880;DHT22;39791;53.184;5.486;2023-02-28T11:06:25;6.20;1.00
53880;DHT22;39791;53.184;5.486;2023-02-28T11:08:53;6.70;99.90
53880;DHT22;39791;53.184;5.486;2023-02-28T11:11:21;6.50;1.00
53880;DHT22;39791;53.184;5.486;2023-02-28T11:13:51;8.10;66.10
53880;DHT22;39791;53.184;5.486;2023-02-28T11:16:17;8.00;99.90
53880;DHT22;39791;53.184;5.486;2023-02-28T11:18:52;7.00;1.00
53880;DHT22;39791;53.184;5.486;2023-02-28T11:21:27;8.30;99.90
53880;DHT22;39791;53.184;5.486;2023-02-28T11:24:12;7.50;99.90
53880;DHT22;39791;53.184;5.486;2023-02-28T11:26:45;8.40;1.00
53880;DHT22;39791;53.184;5.486;2023-02-28T11:34:31;8.60;1.00
53880;DHT22;39791;53.184;5.486;2023-02-28T11:36:59;8.50;99.90
53880;DHT22;39791;53.184;5.486;2023-02-28T11:39:26;7.60;1.00
53880;DHT22;39791;53.184;5.486;2023-02-28T11:47:44;7.70;1.00
53880;DHT22;39791;53.184;5.486;2023-02-28T11:50:49;7.50;1.00
53880;DHT22;39791;53.184;5.486;2023-02-28T11:53:23;8.20;99.90
53880;DHT22;39791;53.184;5.486;2023-02-28T11:55:59;8.10;99.90
53880;DHT22;39791;53.184;5.486;2023-02-28T12:01:49;7.60;94.90
53880;DHT22;39791;53.184;5.486;2023-02-28T12:07:29;7.80;1.00
53880;DHT22;39791;53.184;5.486;2023-02-28T12:12:52;7.80;1.00
53880;DHT22;39791;53.184;5.486;2023-02-28T12:18:15;7.90;1.00
53880;DHT22;39791;53.184;5.486;2023-02-28T12:21:17;7.70;1.00
53880;DHT22;39791;53.184;5.486;2023-02-28T12:26:40;8.50;1.00
53880;DHT22;39791;53.184;5.486;2023-02-28T12:29:28;7.90;99.90
53880;DHT22;39791;53.184;5.486;2023-02-28T12:32:12;8.40;99.90
53880;DHT22;39791;53.184;5.486;2023-02-28T12:34:43;7.90;99.90
53880;DHT22;39791;53.184;5.486;2023-02-28T12:37:40;8.50;99.90
53880;DHT22;39791;53.184;5.486;2023-02-28T12:40:14;8.70;99.90
53880;DHT22;39791;53.184;5.486;2023-02-28T12:42:47;8.70;99.90
53880;DHT22;39791;53.184;5.486;2023-02-28T12:45:23;8.10;99.90
53880;DHT22;39791;53.184;5.486;2023-02-28T12:48:05;8.10;99.90
53880;DHT22;39791;53.184;5.486;2023-02-28T12:50:32;8.10;99.90
53880;DHT22;39791;53.184;5.486;2023-02-28T12:53:09;8.20;99.90
53880;DHT22;39791;53.184;5.486;2023-02-28T13:06:18;8.20;99.90
53880;DHT22;39791;53.184;5.486;2023-02-28T13:09:01;8.20;99.90
53880;DHT22;39791;53.184;5.486;2023-02-28T13:11:31;7.90;99.90
53880;DHT22;39791;53.184;5.486;2023-02-28T13:14:06;8.20;99.90
53880;DHT22;39791;53.184;5.486;2023-02-28T13:19:56;8.30;99.90
53880;DHT22;39791;53.184;5.486;2023-02-28T13:24:52;8.10;99.90
53880;DHT22;39791;53.184;5.486;2023-02-28T13:29:52;8.00;99.90
53880;DHT22;39791;53.184;5.486;2023-02-28T13:39:55;7.80;92.60
53880;DHT22;39791;53.184;5.486;2023-02-28T13:42:22;7.70;93.70
53880;DHT22;39791;53.184;5.486;2023-02-28T13:47:43;7.80;95.70
53880;DHT22;39791;53.184;5.486;2023-02-28T13:50:24;7.70;95.90
53880;DHT22;39791;53.184;5.486;2023-02-28T13:52:55;7.60;91.50
53880;DHT22;39791;53.184;5.486;2023-02-28T13:58:27;7.90;83.10
53880;DHT22;39791;53.184;5.486;2023-02-28T14:06:34;7.60;40.30
53880;DHT22;39791;53.184;5.486;2023-02-28T14:11:34;7.60;15.50
53880;DHT22;39791;53.184;5.486;2023-02-28T14:14:00;7.60;16.00
53880;DHT22;39791;53.184;5.486;2023-02-28T14:16:36;7.50;14.40
53880;DHT22;39791;53.184;5.486;2023-02-28T14:19:21;7.40;17.80
53880;DHT22;39791;53.184;5.486;2023-02-28T14:36:17;7.30;30.90
53880;DHT22;39791;53.184;5.486;2023-02-28T14:38:51;7.50;26.40
53880;DHT22;39791;53.184;5.486;2023-02-28T14:41:29;7.40;20.70
53880;DHT22;39791;53.184;5.486;2023-02-28T14:43:58;7.30;19.70
53880;DHT22;39791;53.184;5.486;2023-02-28T14:46:28;7.20;20.60
53880;DHT22;39791;53.184;5.486;2023-02-28T14:48:55;7.30;24.00
53880;DHT22;39791;53.184;5.486;2023-02-28T14:51:22;7.10;21.90
53880;DHT22;39791;53.184;5.486;2023-02-28T14:53:57;7.10;22.90
53880;DHT22;39791;53.184;5.486;2023-02-28T14:56:37;7.00;24.70
53880;DHT22;39791;53.184;5.486;2023-02-28T14:59:04;7.00;24.90
53880;DHT22;39791;53.184;5.486;2023-02-28T15:01:30;7.00;27.40
53880;DHT22;39791;53.184;5.486;2023-02-28T15:04:06;6.90;23.10
53880;DHT22;39791;53.184;5.486;2023-02-28T15:06:33;7.00;22.00
53880;DHT22;39791;53.184;5.486;2023-02-28T15:09:10;7.00;22.60
53880;DHT22;39791;53.184;5.486;2023-02-28T15:11:37;6.90;27.70
53880;DHT22;39791;53.184;5.486;2023-02-28T15:14:04;6.80;26.80
53880;DHT22;39791;53.184;5.486;2023-02-28T15:16:36;6.90;26.20
53880;DHT22;39791;53.184;5.486;2023-02-28T15:19:18;6.80;27.90
53880;DHT22;39791;53.184;5.486;2023-02-28T15:21:48;6.80;28.60
53880;DHT22;39791;53.184;5.486;2023-02-28T15:24:39;6.80;38.70
53880;DHT22;39791;53.184;5.486;2023-02-28T15:27:21;6.90;32.40
53880;DHT22;39791;53.184;5.486;2023-02-28T15:29:50;6.90;39.50
53880;DHT22;39791;53.184;5.486;2023-02-28T15:32:24;6.70;40.90
53880;DHT22;39791;53.184;5.486;2023-02-28T15:34:50;6.80;43.70
53880;DHT22;39791;53.184;5.486;2023-02-28T15:40:23;6.80;46.00
53880;DHT22;39791;53.184;5.486;2023-02-28T15:45:48;7.00;67.90
53880;DHT22;39791;53.184;5.486;2023-02-28T15:48:35;6.50;69.20
53880;DHT22;39791;53.184;5.486;2023-02-28T15:51:14;6.60;75.60
53880;DHT22;39791;53.184;5.486;2023-02-28T15:53:59;6.60;73.10
53880;DHT22;39791;53.184;5.486;2023-02-28T15:56:27;6.60;77.80
53880;DHT22;39791;53.184;5.486;2023-02-28T15:58:55;6.40;79.70
53880;DHT22;39791;53.184;5.486;2023-02-28T16:01:29;6.40;88.40
53880;DHT22;39791;53.184;5.486;2023-02-28T16:04:01;6.60;92.50
53880;DHT22;39791;53.184;5.486;2023-02-28T16:09:04;6.70;99.90
53880;DHT22;39791;53.184;5.486;2023-02-28T16:11:35;6.30;99.90
53880;DHT22;39791;53.184;5.486;2023-02-28T16:14:01;6.40;99.90
53880;DHT22;39791;53.184;5.486;2023-02-28T16:16:28;6.30;99.90
53880;DHT22;39791;53.184;5.486;2023-02-28T16:18:54;6.70;99.90
53880;DHT22;39791;53.184;5.486;2023-02-28T16:21:20;6.20;99.90
53880;DHT22;39791;53.184;5.486;2023-02-28T16:23:46;6.10;99.90
53880;DHT22;39791;53.184;5.486;2023-02-28T16:26:19;6.60;99.90
53880;DHT22;39791;53.184;5.486;2023-02-28T16:28:46;6.50;99.90
53880;DHT22;39791;53.184;5.486;2023-02-28T16:31:12;6.50;99.90
53880;DHT22;39791;53.184;5.486;2023-02-28T16:33:42;6.50;99.90
53880;DHT22;39791;53.184;5.486;2023-02-28T16:36:21;6.50;99.90
53880;DHT22;39791;53.184;5.486;2023-02-28T16:38:50;6.10;99.90
53880;DHT22;39791;53.184;5.486;2023-02-28T16:41:21;5.90;99.90
53880;DHT22;39791;53.184;5.486;2023-02-28T16:43:51;6.10;99.90
53880;DHT22;39791;53.184;5.486;2023-02-28T16:46:17;6.00;99.90
53880;DHT22;39791;53.184;5.486;2023-02-28T16:48:44;6.00;99.90
53880;DHT22;39791;53.184;5.486;2023-02-28T16:51:14;6.30;99.90
53880;DHT22;39791;53.184;5.486;2023-02-28T16:53:40;5.70;99.90
53880;DHT22;39791;53.184;5.486;2023-02-28T16:56:10;6.20;99.90
53880;DHT22;39791;53.184;5.486;2023-02-28T16:58:39;6.30;99.90
53880;DHT22;39791;53.184;5.486;2023-02-28T17:01:04;6.30;99.90
53880;DHT22;39791;53.184;5.486;2023-02-28T17:03:30;5.50;99.90
53880;DHT22;39791;53.184;5.486;2023-02-28T17:05:56;5.40;99.90
53880;DHT22;39791;53.184;5.486;2023-02-28T17:08:21;5.50;99.90
53880;DHT22;39791;53.184;5.486;2023-02-28T17:10:47;5.80;99.90
53880;DHT22;39791;53.184;5.486;2023-02-28T17:13:12;6.00;99.90
53880;DHT22;39791;53.184;5.486;2023-02-28T17:15:38;5.20;99.90
53880;DHT22;39791;53.184;5.486;2023-02-28T17:18:05;5.60;99.90
53880;DHT22;39791;53.184;5.486;2023-02-28T17:20:30;5.30;99.90
53880;DHT22;39791;53.184;5.486;2023-02-28T17:22:57;5.20;99.90
53880;DHT22;39791;53.184;5.486;2023-02-28T17:25:23;5.70;99.90
53880;DHT22;39791;53.184;5.486;2023-02-28T17:27:50;5.30;99.90
53880;DHT22;39791;53.184;5.486;2023-02-28T17:30:23;5.50;99.90
53880;DHT22;39791;53.184;5.486;2023-02-28T17:32:49;5.00;99.90
53880;DHT22;39791;53.184;5.486;2023-02-28T17:35:15;5.70;99.90
53880;DHT22;39791;53.184;5.486;2023-02-28T17:37:41;5.80;99.90
53880;DHT22;39791;53.184;5.486;2023-02-28T17:40:16;5.10;99.90
53880;DHT22;39791;53.184;5.486;2023-02-28T17:42:42;4.90;99.90
53880;DHT22;39791;53.184;5.486;2023-02-28T17:45:08;5.30;99.90
53880;DHT22;39791;53.184;5.486;2023-02-28T17:47:34;4.70;99.90
53880;DHT22;39791;53.184;5.486;2023-02-28T17:49:59;5.50;99.90
53880;DHT22;39791;53.184;5.486;2023-02-28T17:52:25;5.50;99.90
53880;DHT22;39791;53.184;5.486;2023-02-28T17:54:50;5.50;1.00
53880;DHT22;39791;53.184;5.486;2023-02-28T17:57:16;5.10;1.00
53880;DHT22;39791;53.184;5.486;2023-02-28T17:59:42;4.60;1.00
53880;DHT22;39791;53.184;5.486;2023-02-28T18:02:09;5.60;1.00
53880;DHT22;39791;53.184;5.486;2023-02-28T18:04:36;5.70;1.00
53880;DHT22;39791;53.184;5.486;2023-02-28T18:07:02;5.00;1.00
53880;DHT22;39791;53.184;5.486;2023-02-28T18:09:28;5.20;1.00
53880;DHT22;39791;53.184;5.486;2023-02-28T18:11:54;4.90;1.00
53880;DHT22;39791;53.184;5.486;2023-02-28T18:14:23;4.60;1.00